Aviation Digital Data Service (ADDS)

Output produced by METARs form (1434 UTC 05 December 2016)
found at http://www.aviationweather.gov/adds/metars/
 
KALB 051408Z 0514/0612 18007KT 2SM -SN BR OVC007 
     TEMPO 0515/0516 4SM BR SCT007 OVC015 
     FM051600 19007KT 6SM BR SCT015 OVC025 
     FM051900 26008KT P6SM OVC035 
     FM060000 30006KT P6SM BKN035